Time;durP1;ratioP1;P1;durP2;ratioP2;P2;SDS_P1;SDS_P2;PMS_P1;PMS_P2;Temp;Humidity;BMP_temperature;BMP_pressure;BME280_temperature;BME280_humidity;BME280_pressure;Samples;Min_cycle;Max_cycle;Signal;HPM_P1;HPM_P2
2020/12/20 00:02:31;;;;;;;40.15;16.45;;;;;;;2.53;87.85;100829.87;130587;1096;23288;-60
2020/12/20 00:05:25;;;;;;;41.55;18.40;;;;;;;2.54;87.65;100833.40;130561;1095;23188;-60
2020/12/20 00:08:13;;;;;;;42.10;16.60;;;;;;;2.55;87.62;100841.30;130578;1095;23140;-60
2020/12/20 00:11:00;;;;;;;39.00;15.63;;;;;;;2.56;87.67;100845.67;130613;1095;23193;-60
2020/12/20 00:13:47;;;;;;;26.95;12.73;;;;;;;2.60;87.93;100846.98;130601;1096;24199;-60
2020/12/20 00:16:34;;;;;;;33.18;14.73;;;;;;;2.63;87.48;100846.63;130596;1095;24212;-60
2020/12/20 00:19:26;;;;;;;33.77;14.43;;;;;;;2.58;87.53;100850.87;130607;1095;23286;-60
2020/12/20 00:22:14;;;;;;;37.85;15.45;;;;;;;2.52;87.25;100843.48;130549;1095;23168;-60
2020/12/20 00:25:01;;;;;;;37.67;17.23;;;;;;;2.49;87.29;100836.60;130595;1096;23198;-60
2020/12/20 00:27:48;;;;;;;31.07;15.35;;;;;;;2.47;87.05;100836.77;130587;1096;23797;-60
2020/12/20 00:30:36;;;;;;;30.57;13.62;;;;;;;2.47;86.88;100844.00;130594;1096;23838;-60
2020/12/20 00:33:23;;;;;;;33.45;14.03;;;;;;;2.46;87.84;100840.47;130560;1095;23221;-60
2020/12/20 00:36:10;;;;;;;36.10;15.03;;;;;;;2.45;87.27;100846.05;130547;1095;23166;-60
2020/12/20 00:38:58;;;;;;;37.33;16.32;;;;;;;2.46;87.88;100840.47;130598;1096;23228;-59
2020/12/20 00:41:49;;;;;;;;;;;;;;;2.49;87.81;100841.98;130624;1096;23179;-60
2020/12/20 00:44:36;;;;;;;35.50;15.10;;;;;;;2.51;87.55;100837.27;130454;1097;21351;-59
2020/12/20 00:47:24;;;;;;;34.18;15.28;;;;;;;2.49;87.28;100832.06;130569;1095;23184;-60
2020/12/20 00:50:11;;;;;;;36.53;16.82;;;;;;;2.45;87.01;100833.41;130566;1095;23294;-60
2020/12/20 00:52:58;;;;;;;38.67;16.80;;;;;;;2.42;87.47;100835.63;130546;1095;24611;-60
2020/12/20 00:55:48;;;;;;;37.10;15.35;;;;;;;2.44;87.59;100831.77;130588;1095;23787;-60
2020/12/20 00:58:35;;;;;;;32.53;14.53;;;;;;;2.45;88.25;100824.53;130597;1095;23186;-60
2020/12/20 01:01:23;;;;;;;37.38;15.70;;;;;;;2.52;87.69;100838.11;130563;1095;23168;-60
2020/12/20 01:06:55;;;;;;;42.07;16.30;;;;;;;2.59;87.96;100836.42;125882;1098;23385;-59
2020/12/20 01:09:43;;;;;;;43.07;16.67;;;;;;;2.59;87.83;100836.42;130038;1100;23197;-61
2020/12/20 01:12:32;;;;;;;32.43;15.00;;;;;;;2.60;87.51;100849.67;130026;1100;23603;-61
2020/12/20 01:15:40;;;;;;;35.50;15.10;;;;;;;2.59;87.04;100844.48;130041;1100;23148;-61
2020/12/20 01:18:27;;;;;;;32.93;15.45;;;;;;;2.61;87.64;100847.81;130049;1100;23142;-60
2020/12/20 01:21:15;;;;;;;;;;;;;;;2.64;87.73;100844.78;130036;1100;23216;-61
2020/12/20 01:24:03;;;;;;;40.40;17.03;;;;;;;2.66;87.74;100842.77;130002;1101;21351;-61
2020/12/20 01:26:51;;;;;;;;;;;;;;;2.66;88.00;100834.69;130062;1101;23136;-61
2020/12/20 01:29:39;;;;;;;35.50;15.50;;;;;;;2.67;87.48;100839.91;130007;1101;21921;-61
2020/12/20 01:32:27;;;;;;;38.85;15.72;;;;;;;2.69;87.08;100839.73;130032;1101;23178;-61
2020/12/20 01:35:22;;;;;;;33.07;13.93;;;;;;;2.71;87.18;100843.09;130012;1102;23168;-61
2020/12/20 01:38:10;;;;;;;44.33;15.30;;;;;;;2.72;87.62;100840.23;130013;1102;23176;-60
2020/12/20 01:40:58;;;;;;;41.10;15.63;;;;;;;2.76;87.40;100849.61;130034;1101;23222;-60
2020/12/20 01:43:48;;;;;;;41.15;15.85;;;;;;;2.79;87.57;100851.95;130023;1102;23196;-61
2020/12/20 01:46:41;;;;;;;41.90;16.93;;;;;;;2.80;87.00;100842.03;130018;1102;23210;-61
2020/12/20 01:49:30;;;;;;;39.45;16.10;;;;;;;2.81;87.08;100849.94;129984;1102;23227;-61
2020/12/20 01:52:18;;;;;;;35.80;16.00;;;;;;;2.83;87.52;100839.83;129959;1101;23183;-61
2020/12/20 01:55:07;;;;;;;37.35;15.70;;;;;;;2.87;87.37;100848.41;129981;1102;23223;-61
2020/12/20 01:58:07;;;;;;;42.75;16.50;;;;;;;2.89;87.19;100848.20;129969;1102;23165;-61
2020/12/20 02:01:09;;;;;;;37.50;16.40;;;;;;;2.91;87.15;100846.17;130014;1101;23215;-61
2020/12/20 02:04:20;;;;;;;38.40;16.73;;;;;;;2.90;86.82;100845.34;130051;1093;23152;-61
2020/12/20 02:07:08;;;;;;;34.80;14.70;;;;;;;2.92;86.67;100847.86;130301;1098;23230;-61
2020/12/20 02:09:56;;;;;;;34.50;14.70;;;;;;;2.88;86.26;100850.08;130310;1098;23815;-59
2020/12/20 02:12:44;;;;;;;;;;;;;;;2.84;86.47;100846.90;130316;1100;23165;-59
2020/12/20 02:15:38;;;;;;;31.57;13.70;;;;;;;2.82;86.61;100848.92;129492;1098;21557;-61
2020/12/20 02:18:26;;;;;;;31.65;14.80;;;;;;;2.83;86.47;100850.59;126046;1098;23329;-60
2020/12/20 02:21:15;;;;;;;29.53;15.30;;;;;;;2.83;86.50;100853.29;126015;1098;23497;-59
2020/12/20 02:24:05;;;;;;;32.15;14.60;;;;;;;2.83;86.47;100855.14;130235;1100;23172;-60
2020/12/20 02:26:58;;;;;;;31.70;13.80;;;;;;;2.79;85.86;100860.03;130119;1099;23253;-60
2020/12/20 02:29:48;;;;;;;42.00;15.60;;;;;;;2.76;86.20;100860.37;130262;1098;23154;-59
2020/12/20 02:32:36;;;;;;;31.05;13.70;;;;;;;2.73;85.98;100854.52;130023;1100;23168;-60
2020/12/20 02:35:24;;;;;;;32.15;14.40;;;;;;;2.69;86.42;100847.80;130271;1099;24157;-59
2020/12/20 02:38:12;;;;;;;30.75;13.72;;;;;;;2.67;86.19;100849.83;130236;1099;23909;-60
2020/12/20 02:41:00;;;;;;;32.50;14.50;;;;;;;2.71;86.49;100845.78;130308;1099;23235;-60
2020/12/20 02:43:48;;;;;;;32.38;14.00;;;;;;;2.73;86.45;100859.91;130322;1099;24188;-60
2020/12/20 02:46:39;;;;;;;35.77;15.67;;;;;;;2.78;86.33;100862.89;130315;1099;23191;-61
2020/12/20 02:49:31;;;;;;;37.20;16.90;;;;;;;2.76;86.25;100852.30;130291;1098;23274;-60
2020/12/20 02:52:27;;;;;;;30.50;15.25;;;;;;;2.77;86.81;100851.28;130266;1098;23226;-60
2020/12/20 02:55:15;;;;;;;32.30;14.23;;;;;;;2.81;86.35;100854.48;130299;1099;23313;-60
2020/12/20 02:58:10;;;;;;;40.90;16.23;;;;;;;2.84;86.76;100860.36;130326;1098;23163;-60
2020/12/20 03:01:04;;;;;;;41.00;16.75;;;;;;;2.90;86.54;100857.95;130330;1098;23244;-59
2020/12/20 03:03:52;;;;;;;42.67;18.98;;;;;;;2.92;86.46;100853.23;130308;1099;23165;-60
2020/12/20 03:06:40;;;;;;;41.30;16.85;;;;;;;2.95;86.89;100850.20;130279;1093;23183;-60
2020/12/20 03:09:29;;;;;;;45.67;18.77;;;;;;;2.98;86.97;100855.24;130277;1098;23217;-60
2020/12/20 03:12:18;;;;;;;43.00;17.30;;;;;;;2.98;86.24;100853.39;130318;1098;23193;-60
2020/12/20 03:15:08;;;;;;;38.10;18.10;;;;;;;2.98;86.17;100850.70;130343;1099;23162;-60
2020/12/20 03:17:58;;;;;;;36.65;15.20;;;;;;;3.01;86.71;100855.73;130320;1098;23226;-60
2020/12/20 03:20:46;;;;;;;38.37;17.40;;;;;;;3.02;85.94;100856.58;130293;1099;23162;-60
2020/12/20 03:23:34;;;;;;;40.28;16.85;;;;;;;3.02;85.82;100865.48;130257;1099;23883;-60
2020/12/20 03:26:50;;;;;;;39.00;16.90;;;;;;;3.02;85.77;100867.34;130316;1099;23309;-59
2020/12/20 03:29:57;;;;;;;38.35;17.30;;;;;;;3.00;85.73;100862.13;130361;1098;23211;-59
2020/12/20 03:33:11;;;;;;;43.45;17.35;;;;;;;3.01;85.44;100869.20;130339;1099;23217;-60
2020/12/20 03:36:19;;;;;;;42.00;16.00;;;;;;;3.03;85.94;100879.80;130316;1098;23204;-60
2020/12/20 03:39:07;;;;;;;39.50;18.30;;;;;;;3.01;85.95;100890.73;130288;1099;23177;-60
2020/12/20 03:41:56;;;;;;;42.53;17.23;;;;;;;2.98;85.74;100895.63;130306;1099;23133;-60
2020/12/20 03:44:45;;;;;;;39.03;16.33;;;;;;;2.92;85.85;100899.00;130323;1098;23222;-60
2020/12/20 03:47:36;;;;;;;38.00;17.10;;;;;;;2.82;85.66;100899.22;130314;1098;23180;-60
2020/12/20 03:50:24;;;;;;;37.93;15.87;;;;;;;2.77;85.96;100899.73;130302;1099;23212;-60
2020/12/20 03:53:13;;;;;;;32.30;14.15;;;;;;;2.71;85.43;100903.13;130300;1099;23273;-60
2020/12/20 03:56:14;;;;;;;32.40;14.63;;;;;;;2.65;85.63;100897.59;130300;1099;23164;-60
2020/12/20 03:59:16;;;;;;;31.40;13.95;;;;;;;2.57;86.05;100901.16;130317;1098;23155;-59
2020/12/20 04:02:04;;;;;;;29.00;13.97;;;;;;;2.57;85.89;100898.47;130277;1093;23211;-59
2020/12/20 04:04:53;;;;;;;26.75;13.43;;;;;;;2.55;86.00;100900.48;130299;1098;23212;-59
2020/12/20 04:07:42;;;;;;;25.55;11.80;;;;;;;2.54;86.38;100903.34;130339;1099;23243;-59
2020/12/20 04:10:30;;;;;;;23.60;12.03;;;;;;;2.51;86.35;100912.59;130259;1099;23311;-59
2020/12/20 04:13:19;;;;;;;25.00;12.20;;;;;;;2.47;86.76;100912.09;130298;1098;23161;-59
2020/12/20 04:16:08;;;;;;;23.50;11.57;;;;;;;2.47;86.20;100914.78;130331;1098;24152;-59
2020/12/20 04:18:56;;;;;;;25.40;12.53;;;;;;;2.51;86.82;100920.66;130298;1093;23229;-59
2020/12/20 04:21:52;;;;;;;26.13;13.37;;;;;;;2.47;86.90;100917.47;130307;1100;23161;-59
2020/12/20 04:24:59;;;;;;;27.73;12.53;;;;;;;2.47;86.76;100930.92;130321;1093;23274;-59
2020/12/20 04:27:54;;;;;;;31.60;13.25;;;;;;;2.48;87.14;100934.45;130321;1099;23162;-59
2020/12/20 04:30:42;;;;;;;29.15;12.88;;;;;;;2.52;87.26;100937.64;130289;1098;23160;-59
2020/12/20 04:33:39;;;;;;;27.85;13.65;;;;;;;2.55;86.58;100935.45;130304;1099;23163;-59
2020/12/20 04:36:35;;;;;;;27.95;12.95;;;;;;;2.53;86.81;100934.78;130302;1099;23172;-59
2020/12/20 04:39:37;;;;;;;34.45;14.60;;;;;;;2.55;87.34;100943.53;130263;1098;23193;-59
2020/12/20 04:42:25;;;;;;;28.40;12.53;;;;;;;2.59;87.18;100955.64;130282;1098;23223;-60
2020/12/20 04:45:13;;;;;;;27.82;13.45;;;;;;;2.58;87.07;100951.27;130319;1098;23208;-59
2020/12/20 04:48:06;;;;;;;29.05;12.75;;;;;;;2.58;86.73;100945.88;130276;1099;23132;-59
2020/12/20 04:51:03;;;;;;;31.20;14.45;;;;;;;2.61;86.91;100960.82;130286;1098;23256;-59
2020/12/20 04:53:51;;;;;;;26.57;11.03;;;;;;;2.65;87.32;100956.78;130285;1098;23243;-59
2020/12/20 04:56:44;;;;;;;29.10;12.45;;;;;;;2.68;87.10;100954.59;127350;1098;23332;-60
2020/12/20 04:59:45;;;;;;;22.37;10.57;;;;;;;2.69;86.74;100953.59;126250;1099;23382;-60
2020/12/20 05:02:34;;;;;;;23.90;11.50;;;;;;;2.70;86.98;100946.36;130318;1098;24150;-61
2020/12/20 05:05:23;;;;;;;23.40;11.23;;;;;;;2.73;86.95;100959.47;130177;1099;24630;-61
2020/12/20 05:08:11;;;;;;;22.37;10.78;;;;;;;2.75;87.04;100960.11;130334;1098;23172;-59
2020/12/20 05:10:58;;;;;;;25.43;11.38;;;;;;;2.74;87.26;100953.08;130300;1098;23724;-59
2020/12/20 05:13:48;;;;;;;23.65;10.50;;;;;;;2.75;86.86;100955.57;130327;1099;23150;-59
2020/12/20 05:16:40;;;;;;;22.95;10.90;;;;;;;2.77;86.38;100945.48;130330;1098;23288;-59
2020/12/20 05:19:35;;;;;;;23.70;11.87;;;;;;;2.78;86.60;100947.16;130310;1098;24154;-59
2020/12/20 05:22:34;;;;;;;25.00;11.50;;;;;;;2.79;87.14;100950.69;130372;1099;23869;-59
2020/12/20 05:25:24;;;;;;;25.60;11.45;;;;;;;2.82;86.47;100950.36;130304;1098;23289;-60
2020/12/20 05:28:18;;;;;;;24.50;11.70;;;;;;;2.84;87.24;100945.64;130292;1098;23171;-60
2020/12/20 05:31:12;;;;;;;26.17;11.63;;;;;;;2.86;86.44;100959.77;130322;1099;24291;-60
2020/12/20 05:34:08;;;;;;;25.57;12.80;;;;;;;2.86;86.58;100957.08;130336;1098;23230;-60
2020/12/20 05:37:08;;;;;;;27.45;13.35;;;;;;;2.83;86.25;100963.64;130314;1098;24448;-60
2020/12/20 05:40:38;;;;;;;31.05;13.30;;;;;;;2.82;86.68;100966.50;130261;1093;23223;-60
2020/12/20 05:43:26;;;;;;;24.00;12.03;;;;;;;2.82;85.84;100966.50;130332;1098;23258;-60
2020/12/20 05:46:15;;;;;;;29.70;12.37;;;;;;;2.82;86.56;100971.89;130318;1098;23224;-60
2020/12/20 05:49:23;;;;;;;23.35;10.55;;;;;;;2.82;86.16;100975.42;130318;1098;24651;-60
2020/12/20 05:52:12;;;;;;;28.05;12.40;;;;;;;2.84;86.01;100986.02;130311;1098;23228;-60
2020/12/20 05:54:59;;;;;;;27.40;12.70;;;;;;;2.82;85.95;100972.73;130276;1098;23188;-60
2020/12/20 05:57:47;;;;;;;28.07;12.65;;;;;;;2.82;85.82;100979.96;130354;1098;23175;-59
2020/12/20 06:00:35;;;;;;;28.47;12.70;;;;;;;2.80;86.02;100985.52;130355;1098;23859;-59
2020/12/20 06:03:23;;;;;;;24.87;12.20;;;;;;;2.79;86.00;100983.83;130333;1098;23223;-59
2020/12/20 06:06:10;;;;;;;25.12;11.80;;;;;;;2.80;85.98;100987.36;130373;1098;23204;-59
2020/12/20 06:08:59;;;;;;;23.97;11.57;;;;;;;2.80;85.71;100990.05;130320;1098;23890;-59
2020/12/20 06:11:53;;;;;;;23.93;12.00;;;;;;;2.81;85.63;100989.05;130308;1098;23166;-59
2020/12/20 06:14:41;;;;;;;20.87;10.80;;;;;;;2.84;86.06;100994.09;130312;1098;23207;-59
2020/12/20 06:17:29;;;;;;;26.15;11.95;;;;;;;2.86;85.11;100994.77;130301;1098;23747;-59
2020/12/20 06:20:26;;;;;;;;;;;;;;;2.88;85.85;100990.05;130358;1098;24094;-59
2020/12/20 06:23:17;;;;;;;27.30;11.07;;;;;;;2.89;85.49;100997.09;130347;1098;21372;-59
2020/12/20 06:26:05;;;;;;;21.40;10.80;;;;;;;2.89;85.33;101010.55;130313;1098;23199;-59
2020/12/20 06:28:52;;;;;;;26.10;11.53;;;;;;;2.87;85.53;101004.52;130369;1090;25372;-59
2020/12/20 06:31:40;;;;;;;25.97;13.28;;;;;;;2.84;85.18;101010.24;130319;1098;23149;-59
2020/12/20 06:34:28;;;;;;;28.67;12.98;;;;;;;2.82;85.27;101015.79;130336;1098;23168;-59
2020/12/20 06:37:19;;;;;;;25.32;11.33;;;;;;;2.79;84.89;101012.59;130329;1093;23188;-59
2020/12/20 06:40:07;;;;;;;26.35;11.80;;;;;;;2.76;85.28;101021.00;130286;1093;23240;-59
2020/12/20 06:42:55;;;;;;;25.30;11.83;;;;;;;2.74;85.57;101018.48;130321;1098;23271;-59
2020/12/20 06:45:44;;;;;;;21.37;10.37;;;;;;;2.74;85.59;101021.17;130339;1098;23160;-59
2020/12/20 06:48:36;;;;;;;22.20;11.10;;;;;;;2.72;85.28;101022.38;130346;1098;23274;-59
2020/12/20 06:51:28;;;;;;;23.55;10.50;;;;;;;2.68;85.71;101019.18;130353;1098;23156;-59
2020/12/20 06:54:25;;;;;;;25.00;11.65;;;;;;;2.69;85.30;101023.55;130291;1099;23254;-60
2020/12/20 06:57:12;;;;;;;25.03;12.27;;;;;;;2.66;85.60;101023.05;130331;1098;24238;-59
2020/12/20 07:00:00;;;;;;;25.68;12.58;;;;;;;2.65;85.76;101021.36;130341;1098;23594;-59
2020/12/20 07:02:48;;;;;;;23.18;11.43;;;;;;;2.67;85.70;101022.03;130352;1098;23226;-59
2020/12/20 07:05:38;;;;;;;28.10;11.45;;;;;;;2.70;85.41;101017.16;129592;1098;27814;-60
2020/12/20 07:08:27;;;;;;;23.67;12.30;;;;;;;2.74;85.30;101023.86;130348;1098;23819;-60
2020/12/20 07:11:22;;;;;;;23.45;11.75;;;;;;;2.76;85.60;101021.00;130378;1090;23887;-61
2020/12/20 07:14:36;;;;;;;26.77;12.77;;;;;;;2.78;85.60;101018.98;130329;1098;23801;-61
2020/12/20 07:17:24;;;;;;;26.20;11.75;;;;;;;2.80;85.03;101028.58;130331;1099;23153;-61
2020/12/20 07:20:12;;;;;;;30.50;13.90;;;;;;;2.79;85.72;101031.44;130326;1098;23190;-61
2020/12/20 07:23:00;;;;;;;22.82;12.98;;;;;;;2.80;85.51;101033.12;130319;1098;23155;-61
2020/12/20 07:25:48;;;;;;;26.50;13.15;;;;;;;2.80;85.29;101038.50;130297;1097;23872;-61
2020/12/20 07:28:35;;;;;;;28.07;14.23;;;;;;;2.77;84.93;101036.98;130296;1098;24462;-59
2020/12/20 07:31:23;;;;;;;;;;;;;;;2.77;84.66;101038.83;130375;1098;23159;-60
2020/12/20 07:34:11;;;;;;;21.90;11.83;;;;;;;2.71;84.95;101040.37;130338;1099;21382;-60
2020/12/20 07:36:59;;;;;;;29.10;14.03;;;;;;;2.70;85.22;101041.38;130341;1098;24200;-59
2020/12/20 07:39:47;;;;;;;30.60;13.70;;;;;;;2.72;84.92;101041.22;130317;1098;23205;-58
2020/12/20 07:42:35;;;;;;;25.88;13.53;;;;;;;2.68;84.73;101034.48;130305;1098;23226;-59
2020/12/20 07:45:23;;;;;;;28.47;14.38;;;;;;;2.67;85.20;101041.71;130333;1098;23253;-59
2020/12/20 07:48:10;;;;;;;23.70;11.95;;;;;;;2.66;85.35;101041.88;130281;1098;23169;-59
2020/12/20 07:51:14;;;;;;;31.75;15.72;;;;;;;2.60;85.16;101047.95;130274;1098;23231;-59
2020/12/20 07:54:11;;;;;;;27.75;14.75;;;;;;;2.53;84.73;101053.16;130328;1098;23200;-59
2020/12/20 07:56:58;;;;;;;29.30;13.60;;;;;;;2.55;85.14;101048.45;130287;1097;23234;-59
2020/12/20 07:59:46;;;;;;;32.23;15.32;;;;;;;2.60;85.26;101050.64;130348;1098;23156;-59
2020/12/20 08:02:33;;;;;;;36.03;15.00;;;;;;;2.63;85.39;101050.28;130312;1098;23150;-58
2020/12/20 08:05:21;;;;;;;30.88;14.45;;;;;;;2.66;85.41;101044.57;129978;1098;24836;-60
2020/12/20 08:08:10;;;;;;;34.23;16.00;;;;;;;2.71;85.51;101056.52;126038;1098;23329;-59
2020/12/20 08:11:01;;;;;;;34.58;17.90;;;;;;;2.75;85.56;101059.69;130292;1093;23173;-59
2020/12/20 08:14:00;;;;;;;33.90;18.60;;;;;;;2.75;85.27;101052.45;130261;1098;23249;-60
2020/12/20 08:16:51;;;;;;;;;;;;;;;2.73;84.92;101053.66;130375;1098;23143;-60
2020/12/20 08:19:39;;;;;;;39.00;19.60;;;;;;;2.71;85.15;101053.83;130331;1098;21389;-60
2020/12/20 08:22:27;;;;;;;43.63;20.03;;;;;;;2.72;85.18;101047.44;130251;1098;23162;-60
2020/12/20 08:25:15;;;;;;;42.05;20.30;;;;;;;2.77;85.30;101054.98;130281;1098;24084;-59
2020/12/20 08:28:03;;;;;;;47.40;22.83;;;;;;;2.82;85.38;101048.09;130235;1098;23880;-59
2020/12/20 08:30:51;;;;;;;49.33;26.05;;;;;;;2.89;85.07;101050.92;130291;1098;23183;-60
2020/12/20 08:33:38;;;;;;;45.65;23.75;;;;;;;2.96;85.29;101043.02;130329;1098;23213;-59
2020/12/20 08:36:26;;;;;;;36.23;17.20;;;;;;;3.02;85.31;101053.95;130313;1098;23177;-61
2020/12/20 08:39:14;;;;;;;42.50;20.10;;;;;;;3.08;85.66;101052.41;130304;1098;24193;-61
2020/12/20 08:42:03;;;;;;;36.20;16.35;;;;;;;3.13;85.05;101058.97;130290;1098;23255;-62
2020/12/20 08:44:51;;;;;;;37.25;19.85;;;;;;;3.17;84.81;101054.09;130290;1098;23168;-62
2020/12/20 08:47:39;;;;;;;30.72;16.42;;;;;;;3.16;84.81;101065.88;130312;1098;23194;-62
2020/12/20 08:50:28;;;;;;;30.30;17.33;;;;;;;3.11;84.56;101055.61;130327;1098;23194;-62
2020/12/20 08:53:16;;;;;;;31.50;16.90;;;;;;;3.12;84.32;101064.53;130337;1098;23156;-61
2020/12/20 08:56:08;;;;;;;33.33;17.07;;;;;;;3.14;84.17;101059.81;130230;1098;23226;-61
2020/12/20 08:59:01;;;;;;;34.80;18.70;;;;;;;3.17;84.02;101065.67;130330;1098;23228;-60
2020/12/20 09:01:51;;;;;;;38.80;19.60;;;;;;;3.18;84.06;101063.82;130317;1098;23145;-61
2020/12/20 09:04:39;;;;;;;37.83;19.43;;;;;;;3.19;83.84;101060.12;130299;1097;23161;-62
2020/12/20 09:07:53;;;;;;;35.52;20.12;;;;;;;3.18;83.93;101064.66;130306;1098;24555;-62
2020/12/20 09:10:41;;;;;;;36.90;21.60;;;;;;;3.19;84.25;101062.81;130280;1098;23168;-61
2020/12/20 09:13:29;;;;;;;29.85;17.20;;;;;;;3.16;83.76;101063.18;130299;1098;23299;-61
2020/12/20 09:16:17;;;;;;;32.17;18.37;;;;;;;3.13;83.44;101063.52;130292;1098;23211;-61
2020/12/20 09:19:09;;;;;;;39.50;21.30;;;;;;;3.15;83.60;101059.64;130301;1098;23166;-61
2020/12/20 09:21:57;;;;;;;39.23;20.20;;;;;;;3.12;83.25;101057.29;130356;1099;23153;-61
2020/12/20 09:24:59;;;;;;;33.55;17.20;;;;;;;3.11;83.20;101063.69;130281;1098;23298;-61
2020/12/20 09:27:53;;;;;;;37.00;18.35;;;;;;;3.11;83.11;101062.84;130266;1098;23322;-61
2020/12/20 09:30:42;;;;;;;39.05;19.85;;;;;;;3.13;82.71;101060.83;130325;1098;23269;-61
2020/12/20 09:33:31;;;;;;;40.10;22.15;;;;;;;3.15;83.32;101056.95;130316;1098;23164;-61
2020/12/20 09:36:21;;;;;;;37.65;21.35;;;;;;;3.17;82.96;101060.28;130323;1098;23145;-61
2020/12/20 09:39:11;;;;;;;36.15;19.80;;;;;;;3.19;83.06;101060.95;130310;1098;23174;-61
2020/12/20 09:42:00;;;;;;;35.63;19.33;;;;;;;3.19;82.77;101060.95;130309;1098;23275;-61
2020/12/20 09:44:48;;;;;;;35.95;20.17;;;;;;;3.14;82.59;101065.20;130326;1098;23243;-61
2020/12/20 09:47:39;;;;;;;41.05;20.50;;;;;;;3.07;82.06;101066.88;130328;1098;23231;-59
2020/12/20 09:50:26;;;;;;;37.15;20.35;;;;;;;3.04;82.03;101061.83;130311;1098;23238;-59
2020/12/20 09:53:14;;;;;;;36.10;20.25;;;;;;;3.03;82.43;101068.26;130358;1098;23151;-59
2020/12/20 09:56:02;;;;;;;32.85;19.15;;;;;;;3.03;82.90;101066.38;130306;1097;23175;-59
2020/12/20 09:58:50;;;;;;;31.73;17.73;;;;;;;3.04;82.63;101056.45;130311;1098;23186;-59
2020/12/20 10:01:38;;;;;;;30.15;17.07;;;;;;;3.07;83.13;101053.42;130304;1093;23242;-59
2020/12/20 10:04:25;;;;;;;31.68;17.35;;;;;;;3.09;82.63;101051.40;130348;1098;24213;-59
2020/12/20 10:07:13;;;;;;;34.05;17.42;;;;;;;3.11;82.53;101058.30;130330;1098;23320;-59
2020/12/20 10:10:01;;;;;;;38.73;21.10;;;;;;;3.11;82.39;101058.30;130313;1090;23162;-59
2020/12/20 10:12:49;;;;;;;;;;;;;;;3.13;82.66;101058.13;130355;1098;23180;-59
2020/12/20 10:15:36;;;;;;;41.45;22.25;;;;;;;3.10;82.43;101056.62;130328;1098;21377;-59
2020/12/20 10:18:24;;;;;;;43.38;21.87;;;;;;;3.10;82.68;101059.31;130335;1098;23151;-59
2020/12/20 10:21:15;;;;;;;40.33;22.03;;;;;;;3.07;82.37;101048.88;130296;1098;24103;-60
2020/12/20 10:24:10;;;;;;;38.40;22.30;;;;;;;3.04;82.45;101062.67;130330;1098;23159;-59
2020/12/20 10:26:58;;;;;;;36.90;20.90;;;;;;;3.04;82.68;101054.59;130297;1098;24188;-59
2020/12/20 10:29:46;;;;;;;31.42;18.80;;;;;;;2.98;82.31;101051.77;130322;1098;23259;-59
2020/12/20 10:32:34;;;;;;;34.65;19.65;;;;;;;2.95;82.50;101049.41;130317;1098;24130;-59
2020/12/20 10:35:27;;;;;;;34.00;19.95;;;;;;;2.92;82.71;101052.44;130330;1093;23213;-59
2020/12/20 10:38:15;;;;;;;36.05;22.45;;;;;;;2.81;82.69;101056.33;130304;1098;23206;-59
2020/12/20 10:41:04;;;;;;;;;;;;;;;2.71;82.37;101056.52;130346;1098;23251;-59
2020/12/20 10:43:52;;;;;;;38.10;22.10;;;;;;;2.64;82.79;101054.66;130288;1098;21915;-59
2020/12/20 10:46:43;;;;;;;34.43;20.30;;;;;;;2.57;82.67;101054.51;130334;1098;23333;-59
2020/12/20 10:49:31;;;;;;;34.63;19.13;;;;;;;2.55;82.28;101052.99;130323;1098;23183;-59
2020/12/20 10:52:19;;;;;;;38.38;19.50;;;;;;;2.57;82.72;101050.98;130343;1098;24245;-60
2020/12/20 10:55:08;;;;;;;41.08;20.88;;;;;;;2.55;82.75;101053.83;130302;1099;23161;-59
2020/12/20 10:57:55;;;;;;;37.97;22.57;;;;;;;2.59;83.06;101054.34;130292;1098;23251;-59
2020/12/20 11:00:43;;;;;;;37.73;20.92;;;;;;;2.63;83.35;101053.81;130291;1099;23227;-59
2020/12/20 11:03:30;;;;;;;34.27;20.90;;;;;;;2.67;83.33;101052.48;130338;1093;23149;-59
2020/12/20 11:06:23;;;;;;;40.00;22.32;;;;;;;2.74;83.62;101060.73;130311;1098;23326;-59
2020/12/20 11:09:12;;;;;;;43.25;23.80;;;;;;;2.79;83.33;101055.66;130309;1098;24089;-60
2020/12/20 11:12:03;;;;;;;40.17;21.03;;;;;;;2.81;82.88;101050.95;130336;1099;24199;-59
2020/12/20 11:14:51;;;;;;;36.20;22.40;;;;;;;2.82;82.95;101053.47;130295;1098;23302;-59
2020/12/20 11:17:39;;;;;;;34.25;20.48;;;;;;;2.83;83.07;101057.84;130322;1098;23175;-60
2020/12/20 11:20:27;;;;;;;36.15;20.37;;;;;;;2.79;82.49;101056.50;130313;1098;23255;-59
2020/12/20 11:23:16;;;;;;;37.90;19.98;;;;;;;2.79;82.87;101059.19;130342;1098;23829;-59
2020/12/20 11:26:20;;;;;;;35.37;19.10;;;;;;;2.79;82.63;101056.50;128229;1097;23492;-59
2020/12/20 11:29:09;;;;;;;33.97;19.17;;;;;;;2.81;83.23;101057.17;125948;1098;23830;-58
2020/12/20 11:31:57;;;;;;;42.35;22.55;;;;;;;2.84;82.64;101061.38;130335;1098;23815;-60
2020/12/20 11:34:44;;;;;;;34.45;20.30;;;;;;;2.83;83.27;101055.16;130313;1098;23216;-60
2020/12/20 11:37:32;;;;;;;32.75;18.75;;;;;;;2.83;82.70;101059.70;130325;1098;23212;-60
2020/12/20 11:40:20;;;;;;;;;;;;;;;2.83;83.22;101063.23;130320;1098;23267;-60
2020/12/20 11:43:09;;;;;;;36.30;20.00;;;;;;;2.82;82.95;101063.40;130287;1098;21411;-60
2020/12/20 11:45:59;;;;;;;36.67;19.63;;;;;;;2.82;82.84;101063.40;130287;1098;23187;-60
2020/12/20 11:48:47;;;;;;;33.85;19.15;;;;;;;2.83;82.56;101065.08;130339;1098;23258;-60
2020/12/20 11:51:35;;;;;;;38.28;22.60;;;;;;;2.83;83.06;101065.92;130320;1098;23270;-60
2020/12/20 11:54:23;;;;;;;38.88;21.73;;;;;;;2.84;82.70;101067.61;130329;1098;23176;-60
2020/12/20 11:57:14;;;;;;;33.60;18.55;;;;;;;2.88;82.28;101076.19;130339;1098;23172;-60
2020/12/20 12:00:03;;;;;;;32.65;19.20;;;;;;;2.86;82.75;101070.13;130289;1098;23165;-60
2020/12/20 12:02:59;;;;;;;33.35;18.85;;;;;;;2.86;82.55;101064.75;130319;1098;23341;-60
2020/12/20 12:05:46;;;;;;;36.50;19.05;;;;;;;2.87;82.29;101077.20;130313;1098;23286;-60
2020/12/20 12:08:34;;;;;;;40.38;22.45;;;;;;;2.86;82.30;101080.90;130319;1098;23241;-60
2020/12/20 12:11:22;;;;;;;35.25;20.05;;;;;;;2.85;82.42;101079.22;130288;1098;23316;-60
2020/12/20 12:14:10;;;;;;;39.18;22.60;;;;;;;2.82;82.72;101080.39;130323;1098;24137;-60
2020/12/20 12:16:58;;;;;;;41.35;23.92;;;;;;;2.81;82.68;101084.09;130326;1098;23286;-60
2020/12/20 12:19:46;;;;;;;41.83;22.43;;;;;;;2.82;82.35;101088.46;130325;1098;24194;-60
2020/12/20 12:22:34;;;;;;;41.00;22.07;;;;;;;2.82;82.85;101079.55;130336;1098;23864;-60
2020/12/20 12:25:22;;;;;;;48.65;26.82;;;;;;;2.83;82.59;101078.54;130315;1098;23164;-60
2020/12/20 12:28:10;;;;;;;36.40;20.65;;;;;;;2.84;82.17;101085.61;130259;1090;23314;-60
2020/12/20 12:30:58;;;;;;;34.50;20.20;;;;;;;2.83;82.53;101081.23;130246;1098;24517;-60
2020/12/20 12:33:46;;;;;;;43.87;21.73;;;;;;;2.84;82.28;101080.22;130340;1090;23278;-60
2020/12/20 12:36:34;;;;;;;49.42;27.37;;;;;;;2.88;82.75;101086.95;130317;1098;23178;-60
2020/12/20 12:39:21;;;;;;;37.60;22.93;;;;;;;2.90;82.71;101087.59;130344;1098;23173;-60
2020/12/20 12:42:09;;;;;;;39.85;23.67;;;;;;;2.93;82.57;101089.12;130246;1098;23170;-60
2020/12/20 12:44:57;;;;;;;39.90;23.25;;;;;;;2.93;83.03;101087.27;130306;1098;23202;-60
2020/12/20 12:47:45;;;;;;;46.63;25.70;;;;;;;2.92;82.65;101085.58;130319;1098;23174;-60
2020/12/20 12:50:36;;;;;;;87.37;42.95;;;;;;;2.93;82.62;101089.12;130308;1098;23174;-60
2020/12/20 12:53:25;;;;;;;87.30;38.15;;;;;;;2.94;82.84;101094.34;130309;1098;23159;-60
2020/12/20 12:56:15;;;;;;;53.43;27.23;;;;;;;2.96;82.58;101096.86;130330;1099;23224;-60
2020/12/20 12:59:03;;;;;;;68.20;33.17;;;;;;;2.99;82.48;101104.61;130308;1098;23172;-60
2020/12/20 13:01:51;;;;;;;52.25;27.40;;;;;;;3.02;82.42;101099.73;130315;1098;23972;-61